createdAt,value
2019-02-07T00:00:02.453Z,1008.82
2019-02-07T00:00:28.708Z,1008.81
2019-02-07T00:00:54.816Z,1008.79
2019-02-07T00:01:21.195Z,1008.73
2019-02-07T00:01:47.324Z,1008.73
2019-02-07T00:02:13.432Z,1008.69
2019-02-07T00:02:39.785Z,1008.71
2019-02-07T00:03:05.920Z,1008.64
2019-02-07T00:03:32.023Z,1008.69
2019-02-07T00:03:58.402Z,1008.66
2019-02-07T00:04:24.516Z,1008.65
2019-02-07T00:04:51.116Z,1008.69
2019-02-07T00:05:17.218Z,1008.68
2019-02-07T00:05:43.323Z,1008.69
2019-02-07T00:06:09.678Z,1008.61
2019-02-07T00:06:35.791Z,1008.63
2019-02-07T00:07:01.938Z,1008.64
2019-02-07T00:07:28.252Z,1008.61
2019-02-07T00:07:54.360Z,1008.64
2019-02-07T00:08:20.725Z,1008.66
2019-02-07T00:08:46.847Z,1008.63
2019-02-07T00:09:12.954Z,1008.63
2019-02-07T00:09:39.341Z,1008.64
2019-02-07T00:10:05.443Z,1008.64
2019-02-07T00:10:31.909Z,1008.61
2019-02-07T00:10:58.018Z,1008.61
2019-02-07T00:11:24.152Z,1008.6
2019-02-07T00:11:50.613Z,1008.59
2019-02-07T00:12:16.717Z,1008.6
2019-02-07T00:12:42.847Z,1008.57
2019-02-07T00:13:09.514Z,1008.54
2019-02-07T00:13:35.618Z,1008.53
2019-02-07T00:14:01.955Z,1008.54
2019-02-07T00:14:28.063Z,1008.55
2019-02-07T00:14:55.188Z,1008.48
2019-02-07T00:15:21.734Z,1008.5
2019-02-07T00:15:47.837Z,1008.44
2019-02-07T00:16:13.952Z,1008.45
2019-02-07T00:16:40.076Z,1008.49
2019-02-07T00:17:06.182Z,1008.45
2019-02-07T00:17:32.558Z,1008.39
2019-02-07T00:17:58.659Z,1008.35
2019-02-07T00:18:24.785Z,1008.37
2019-02-07T00:18:51.068Z,1008.34
2019-02-07T00:19:17.179Z,1008.37
2019-02-07T00:19:43.651Z,1008.32
2019-02-07T00:20:09.785Z,1008.34
2019-02-07T00:20:35.951Z,1008.33
2019-02-07T00:21:02.275Z,1008.35
2019-02-07T00:21:28.391Z,1008.33
2019-02-07T00:21:54.517Z,1008.32
2019-02-07T00:22:20.940Z,1008.28
2019-02-07T00:22:48.116Z,1008.3
2019-02-07T00:23:14.573Z,1008.3
2019-02-07T00:23:40.674Z,1008.28
2019-02-07T00:24:06.786Z,1008.28
2019-02-07T00:24:42.449Z,1008.32
2019-02-07T00:25:01.465Z,1008.32
2019-02-07T00:25:27.590Z,1008.25
2019-02-07T00:25:53.727Z,1008.25
2019-02-07T00:26:19.859Z,1008.24
2019-02-07T00:26:46.323Z,1008.25
2019-02-07T00:27:12.428Z,1008.26
2019-02-07T00:27:38.543Z,1008.21
2019-02-07T00:28:05.117Z,1008.26
2019-02-07T00:28:31.223Z,1008.2
2019-02-07T00:28:57.641Z,1008.25
2019-02-07T00:29:23.747Z,1008.25
2019-02-07T00:29:49.881Z,1008.19
2019-02-07T00:30:16.308Z,1008.12
2019-02-07T00:30:42.466Z,1008.18
2019-02-07T00:31:08.575Z,1008.19
2019-02-07T00:31:34.960Z,1008.16
2019-02-07T00:32:01.067Z,1008.19
2019-02-07T00:32:27.468Z,1008.19
2019-02-07T00:32:53.566Z,1008.13
2019-02-07T00:33:19.670Z,1008.16
2019-02-07T00:33:46.698Z,1008.12
2019-02-07T00:34:12.797Z,1008.13
2019-02-07T00:34:39.148Z,1008.11
2019-02-07T00:35:05.254Z,1008.13
2019-02-07T00:35:31.360Z,1008.1
2019-02-07T00:35:57.514Z,1008.11
2019-02-07T00:36:23.620Z,1008.09
2019-02-07T00:36:49.724Z,1008.07
2019-02-07T00:37:16.137Z,1008.04
2019-02-07T00:37:42.246Z,1008.06
2019-02-07T00:38:08.478Z,1008.03
2019-02-07T00:38:34.583Z,1008.04
2019-02-07T00:39:00.720Z,1008.01
2019-02-07T00:39:27.168Z,1008.05
2019-02-07T00:39:53.270Z,1007.97
2019-02-07T00:40:19.675Z,1008.01
2019-02-07T00:40:45.934Z,1007.99
2019-02-07T00:41:12.037Z,1007.99
2019-02-07T00:41:38.408Z,1007.97
2019-02-07T00:42:04.549Z,1007.99
2019-02-07T00:42:30.655Z,1007.96
2019-02-07T00:42:56.967Z,1007.92
2019-02-07T00:43:23.071Z,1007.89
2019-02-07T00:43:49.446Z,1007.97
2019-02-07T00:44:15.582Z,1007.94
2019-02-07T00:44:50.367Z,1007.9
2019-02-07T00:45:10.085Z,1007.9
2019-02-07T00:45:36.191Z,1007.92
2019-02-07T00:46:02.295Z,1007.82
2019-02-07T00:46:28.647Z,1007.89
2019-02-07T00:46:54.814Z,1007.88
2019-02-07T00:47:21.093Z,1007.81
2019-02-07T00:47:47.198Z,1007.82
2019-02-07T00:48:13.302Z,1007.81
2019-02-07T00:48:39.648Z,1007.83
2019-02-07T00:49:05.747Z,1007.79
2019-02-07T00:49:32.102Z,1007.8
2019-02-07T00:49:58.266Z,1007.79
2019-02-07T00:50:24.398Z,1007.71
2019-02-07T00:50:51.766Z,1007.74
2019-02-07T00:51:17.958Z,1007.75
2019-02-07T00:51:44.013Z,1007.77
2019-02-07T00:52:10.578Z,1007.72
2019-02-07T00:52:36.713Z,1007.74
2019-02-07T00:53:03.308Z,1007.69
2019-02-07T00:53:29.446Z,1007.75
2019-02-07T00:53:55.549Z,1007.65
2019-02-07T00:54:21.959Z,1007.69
2019-02-07T00:54:48.066Z,1007.64
2019-02-07T00:55:14.170Z,1007.7
2019-02-07T00:55:40.541Z,1007.62
2019-02-07T00:56:06.647Z,1007.65
2019-02-07T00:56:33.025Z,1007.69
2019-02-07T00:57:00.152Z,1007.61
2019-02-07T00:57:26.253Z,1007.58
2019-02-07T00:57:52.849Z,1007.63
2019-02-07T00:58:18.948Z,1007.6
2019-02-07T00:58:45.246Z,1007.59
2019-02-07T00:59:11.346Z,1007.58
2019-02-07T00:59:37.527Z,1007.63
2019-02-07T01:00:03.828Z,1007.59
2019-02-07T01:00:29.966Z,1007.55
2019-02-07T01:00:56.069Z,1007.53
2019-02-07T01:01:22.438Z,1007.52
2019-02-07T01:01:48.550Z,1007.52
2019-02-07T01:02:14.979Z,1007.49
2019-02-07T01:02:41.080Z,1007.48
2019-02-07T01:03:07.193Z,1007.51
2019-02-07T01:03:33.565Z,1007.54
2019-02-07T01:03:59.669Z,1007.55
2019-02-07T01:04:25.865Z,1007.51
2019-02-07T01:04:52.088Z,1007.52
2019-02-07T01:05:18.187Z,1007.5
2019-02-07T01:05:44.856Z,1007.49
2019-02-07T01:06:10.963Z,1007.51
2019-02-07T01:06:37.060Z,1007.52
2019-02-07T01:07:03.743Z,1007.48
2019-02-07T01:07:29.854Z,1007.49
2019-02-07T01:07:56.163Z,1007.44
2019-02-07T01:08:22.293Z,1007.46
2019-02-07T01:08:48.409Z,1007.44
2019-02-07T01:09:14.820Z,1007.44
2019-02-07T01:09:40.930Z,1007.42
2019-02-07T01:10:07.039Z,1007.44
2019-02-07T01:10:33.338Z,1007.41
2019-02-07T01:10:59.446Z,1007.38
2019-02-07T01:11:25.573Z,1007.48
2019-02-07T01:11:51.675Z,1007.44
2019-02-07T01:12:17.785Z,1007.45
2019-02-07T01:12:44.179Z,1007.45
2019-02-07T01:13:10.379Z,1007.43
2019-02-07T01:13:36.804Z,1007.39
2019-02-07T01:14:03.029Z,1007.36
2019-02-07T01:14:29.135Z,1007.34
2019-02-07T01:15:01.779Z,1007.31
2019-02-07T01:15:23.656Z,1007.33
2019-02-07T01:15:49.767Z,1007.4
2019-02-07T01:16:16.143Z,1007.32
2019-02-07T01:16:42.251Z,1007.34
2019-02-07T01:17:08.780Z,1007.29
2019-02-07T01:17:34.889Z,1007.34
2019-02-07T01:18:00.993Z,1007.31
2019-02-07T01:18:27.294Z,1007.34
2019-02-07T01:18:53.402Z,1007.32
2019-02-07T01:19:19.505Z,1007.3
2019-02-07T01:19:45.777Z,1007.29
2019-02-07T01:20:11.885Z,1007.28
2019-02-07T01:20:38.346Z,1007.33
2019-02-07T01:21:04.446Z,1007.28
2019-02-07T01:21:30.553Z,1007.28
2019-02-07T01:21:56.817Z,1007.34
2019-02-07T01:22:22.913Z,1007.25
2019-02-07T01:22:49.333Z,1007.27
2019-02-07T01:23:15.452Z,1007.26
2019-02-07T01:23:41.548Z,1007.24
2019-02-07T01:24:08.091Z,1007.25
2019-02-07T01:24:34.201Z,1007.25
2019-02-07T01:25:00.302Z,1007.23
2019-02-07T01:25:26.905Z,1007.18
2019-02-07T01:25:53.041Z,1007.16
2019-02-07T01:26:19.362Z,1007.2
2019-02-07T01:26:45.490Z,1007.17
2019-02-07T01:27:11.596Z,1007.22
2019-02-07T01:27:37.938Z,1007.22
2019-02-07T01:28:04.075Z,1007.18
2019-02-07T01:28:30.175Z,1007.12
2019-02-07T01:28:56.458Z,1007.14
2019-02-07T01:29:22.558Z,1007.1
2019-02-07T01:29:48.911Z,1007.12
2019-02-07T01:30:15.015Z,1007.13
2019-02-07T01:30:41.119Z,1007.07
2019-02-07T01:31:07.587Z,1007.13
2019-02-07T01:31:33.752Z,1007.08
2019-02-07T01:31:59.982Z,1007.03
2019-02-07T01:32:26.307Z,1007.08
2019-02-07T01:32:52.439Z,1007.09
2019-02-07T01:33:18.736Z,1007.07
2019-02-07T01:33:44.867Z,1006.95
2019-02-07T01:34:10.981Z,1006.97
2019-02-07T01:34:37.336Z,1006.99
2019-02-07T01:35:03.438Z,1006.98
2019-02-07T01:35:29.836Z,1006.97
2019-02-07T01:35:55.941Z,1006.92
2019-02-07T01:36:22.050Z,1006.92
2019-02-07T01:36:48.448Z,1006.92
2019-02-07T01:37:14.549Z,1006.92
2019-02-07T01:37:40.656Z,1006.94
2019-02-07T01:38:07.121Z,1006.96
2019-02-07T01:38:33.250Z,1006.9
2019-02-07T01:38:59.694Z,1006.94
2019-02-07T01:39:25.789Z,1006.92
2019-02-07T01:39:51.903Z,1006.87
2019-02-07T01:40:18.573Z,1006.87
2019-02-07T01:40:44.708Z,1006.91
2019-02-07T01:41:10.824Z,1006.9
2019-02-07T01:41:37.015Z,1006.85
2019-02-07T01:42:03.068Z,1006.91
2019-02-07T01:42:29.371Z,1006.85
2019-02-07T01:42:55.894Z,1006.85
2019-02-07T01:43:22.050Z,1006.84
2019-02-07T01:43:48.464Z,1006.83
2019-02-07T01:44:14.594Z,1006.82
2019-02-07T01:44:40.971Z,1006.81
2019-02-07T01:45:12.905Z,1006.85
2019-02-07T01:45:34.253Z,1006.8
2019-02-07T01:46:00.687Z,1006.78
2019-02-07T01:46:26.791Z,1006.82
2019-02-07T01:46:52.936Z,1006.76
2019-02-07T01:47:19.266Z,1006.75
2019-02-07T01:47:45.375Z,1006.75
2019-02-07T01:48:11.942Z,1006.75
2019-02-07T01:48:38.055Z,1006.76
2019-02-07T01:49:04.155Z,1006.74
2019-02-07T01:49:30.730Z,1006.84
2019-02-07T01:49:56.829Z,1006.64
2019-02-07T01:50:22.943Z,1006.66
2019-02-07T01:50:49.075Z,1006.64
2019-02-07T01:51:15.180Z,1006.64
2019-02-07T01:51:41.525Z,1006.65
2019-02-07T01:52:07.636Z,1006.66
2019-02-07T01:52:33.770Z,1006.6
2019-02-07T01:53:00.363Z,1006.61
2019-02-07T01:53:26.452Z,1006.53
2019-02-07T01:53:52.849Z,1006.55
2019-02-07T01:54:18.955Z,1006.55
2019-02-07T01:54:45.060Z,1006.58
2019-02-07T01:55:11.624Z,1006.56
2019-02-07T01:55:37.732Z,1006.54
2019-02-07T01:56:03.838Z,1006.53
2019-02-07T01:56:30.334Z,1006.5
2019-02-07T01:56:56.440Z,1006.51
2019-02-07T01:57:22.916Z,1006.5
2019-02-07T01:57:49.027Z,1006.53
2019-02-07T01:58:15.125Z,1006.51
2019-02-07T01:58:41.473Z,1006.6
2019-02-07T01:59:07.577Z,1006.48
2019-02-07T01:59:33.688Z,1006.45
2019-02-07T01:59:59.972Z,1006.47
2019-02-07T02:00:26.083Z,1006.48
2019-02-07T02:00:52.445Z,1006.44
2019-02-07T02:01:18.557Z,1006.44
2019-02-07T02:01:44.659Z,1006.46
2019-02-07T02:02:11.524Z,1006.43
2019-02-07T02:02:37.580Z,1006.43
2019-02-07T02:03:03.984Z,1006.38
2019-02-07T02:03:30.093Z,1006.41
2019-02-07T02:03:56.200Z,1006.35
2019-02-07T02:04:22.752Z,1006.47
2019-02-07T02:04:48.861Z,1006.43
2019-02-07T02:05:14.964Z,1006.37
2019-02-07T02:05:41.433Z,1006.35
2019-02-07T02:06:07.541Z,1006.4
2019-02-07T02:06:33.814Z,1006.39
2019-02-07T02:06:59.946Z,1006.36
2019-02-07T02:07:26.058Z,1006.45
2019-02-07T02:07:52.297Z,1006.39
2019-02-07T02:08:18.400Z,1006.36
2019-02-07T02:08:44.502Z,1006.48
2019-02-07T02:09:10.813Z,1006.38
2019-02-07T02:09:36.915Z,1006.35
2019-02-07T02:10:03.255Z,1006.33
2019-02-07T02:10:29.417Z,1006.32
2019-02-07T02:10:55.512Z,1006.3
2019-02-07T02:11:21.925Z,1006.34
2019-02-07T02:11:48.050Z,1006.32
2019-02-07T02:12:14.183Z,1006.34
2019-02-07T02:12:40.307Z,1006.35
2019-02-07T02:13:06.409Z,1006.29
2019-02-07T02:13:32.851Z,1006.22
2019-02-07T02:13:58.953Z,1006.26
2019-02-07T02:14:25.061Z,1006.25
2019-02-07T02:14:51.374Z,1006.25
2019-02-07T02:15:24.282Z,1006.22
2019-02-07T02:15:46.023Z,1006.25
2019-02-07T02:16:12.129Z,1006.24
2019-02-07T02:16:39.223Z,1006.19
2019-02-07T02:17:05.629Z,1006.26
2019-02-07T02:17:31.730Z,1006.16
2019-02-07T02:17:58.149Z,1006.17
2019-02-07T02:18:24.433Z,1006.23
2019-02-07T02:18:50.543Z,1006.2
2019-02-07T02:19:16.987Z,1006.18
2019-02-07T02:19:43.092Z,1006.15
2019-02-07T02:20:09.199Z,1006.16
2019-02-07T02:20:35.534Z,1006.17
2019-02-07T02:21:01.637Z,1006.15
2019-02-07T02:21:28.003Z,1006.14
2019-02-07T02:21:54.173Z,1006.13
2019-02-07T02:22:20.280Z,1006.14
2019-02-07T02:22:46.601Z,1006.14
2019-02-07T02:23:12.729Z,1006.13
2019-02-07T02:23:38.841Z,1006.1
2019-02-07T02:24:05.229Z,1006.12
2019-02-07T02:24:31.342Z,1006.13
2019-02-07T02:24:57.842Z,1006.11
2019-02-07T02:25:23.937Z,1006.05
2019-02-07T02:25:50.072Z,1006.05
2019-02-07T02:26:16.524Z,1006.09
2019-02-07T02:26:42.634Z,1006.04
2019-02-07T02:27:09.082Z,1006.03
2019-02-07T02:27:35.324Z,1006.05
2019-02-07T02:28:01.454Z,1006.05
2019-02-07T02:28:27.874Z,1006.02
2019-02-07T02:28:54.002Z,1005.99
2019-02-07T02:29:20.111Z,1006.03
2019-02-07T02:29:46.388Z,1006.01
2019-02-07T02:30:12.494Z,1006.01
2019-02-07T02:30:38.718Z,1005.99
2019-02-07T02:31:04.818Z,1006.03
2019-02-07T02:31:30.926Z,1005.98
2019-02-07T02:31:57.355Z,1005.95
2019-02-07T02:32:23.466Z,1005.97
2019-02-07T02:32:49.601Z,1005.93
2019-02-07T02:33:16.320Z,1005.97
2019-02-07T02:33:42.427Z,1005.93
2019-02-07T02:34:08.692Z,1005.89
2019-02-07T02:34:34.814Z,1005.91
2019-02-07T02:35:00.989Z,1005.85
2019-02-07T02:35:27.408Z,1005.88
2019-02-07T02:35:53.514Z,1005.88
2019-02-07T02:36:19.632Z,1005.88
2019-02-07T02:36:45.997Z,1005.9
2019-02-07T02:37:12.103Z,1005.85
2019-02-07T02:37:38.228Z,1005.87
2019-02-07T02:38:04.366Z,1005.86
2019-02-07T02:38:30.469Z,1005.89
2019-02-07T02:38:56.841Z,1005.85
2019-02-07T02:39:22.946Z,1005.82
2019-02-07T02:39:49.445Z,1005.82
2019-02-07T02:40:15.739Z,1005.85
2019-02-07T02:40:41.844Z,1005.8
2019-02-07T02:41:08.464Z,1005.75
2019-02-07T02:41:34.573Z,1005.77
2019-02-07T02:42:00.699Z,1005.78
2019-02-07T02:42:26.970Z,1005.75
2019-02-07T02:42:53.080Z,1005.7
2019-02-07T02:43:19.532Z,1005.69
2019-02-07T02:43:45.584Z,1005.75
2019-02-07T02:44:11.719Z,1005.67
2019-02-07T02:44:38.064Z,1005.67
2019-02-07T02:45:04.218Z,1005.67
2019-02-07T02:45:37.375Z,1005.65
2019-02-07T02:45:58.427Z,1005.63
2019-02-07T02:46:24.532Z,1005.63
2019-02-07T02:46:50.941Z,1005.68
2019-02-07T02:47:17.049Z,1005.68
2019-02-07T02:47:43.152Z,1005.65
2019-02-07T02:48:09.527Z,1005.71
2019-02-07T02:48:35.630Z,1005.61
2019-02-07T02:49:01.788Z,1005.67
2019-02-07T02:49:27.885Z,1005.65
2019-02-07T02:49:53.992Z,1005.64
2019-02-07T02:50:20.599Z,1005.63
2019-02-07T02:50:46.734Z,1005.74
2019-02-07T02:51:12.863Z,1005.78
2019-02-07T02:51:39.154Z,1005.66
2019-02-07T02:52:05.263Z,1005.63
2019-02-07T02:52:31.511Z,1005.68
2019-02-07T02:52:57.641Z,1005.64
2019-02-07T02:53:23.746Z,1005.6
2019-02-07T02:53:50.148Z,1005.63
2019-02-07T02:54:16.256Z,1005.64
2019-02-07T02:54:42.364Z,1005.63
2019-02-07T02:55:08.840Z,1005.57
2019-02-07T02:55:34.976Z,1005.62
2019-02-07T02:56:01.341Z,1005.55
2019-02-07T02:56:27.471Z,1005.56
2019-02-07T02:56:53.572Z,1005.54
2019-02-07T02:57:20.289Z,1005.53
2019-02-07T02:57:46.394Z,1005.51
2019-02-07T02:58:12.530Z,1005.52
2019-02-07T02:58:38.763Z,1005.56
2019-02-07T02:59:04.870Z,1005.55
2019-02-07T02:59:31.136Z,1005.44
2019-02-07T02:59:57.253Z,1005.42
2019-02-07T03:00:23.355Z,1005.49
2019-02-07T03:00:49.704Z,1005.42
2019-02-07T03:01:15.863Z,1005.4
2019-02-07T03:01:42.242Z,1005.43
2019-02-07T03:02:08.350Z,1005.49
2019-02-07T03:02:34.461Z,1005.41
2019-02-07T03:03:00.917Z,1005.4
2019-02-07T03:03:27.022Z,1005.36
2019-02-07T03:03:53.130Z,1005.39
2019-02-07T03:04:19.550Z,1005.43
2019-02-07T03:04:45.651Z,1005.38
2019-02-07T03:05:12.095Z,1005.4
2019-02-07T03:05:38.197Z,1005.39
2019-02-07T03:06:04.301Z,1005.37
2019-02-07T03:06:30.803Z,1005.39
2019-02-07T03:06:56.926Z,1005.41
2019-02-07T03:07:23.365Z,1005.34
2019-02-07T03:07:49.493Z,1005.36
2019-02-07T03:08:15.630Z,1005.3
2019-02-07T03:08:42.092Z,1005.31
2019-02-07T03:09:08.215Z,1005.36
2019-02-07T03:09:34.678Z,1005.28
2019-02-07T03:10:01.152Z,1005.26
2019-02-07T03:10:27.256Z,1005.32
2019-02-07T03:10:53.652Z,1005.27
2019-02-07T03:11:19.798Z,1005.25
2019-02-07T03:11:45.898Z,1005.21
2019-02-07T03:12:12.268Z,1005.24
2019-02-07T03:12:38.379Z,1005.25
2019-02-07T03:13:04.516Z,1005.37
2019-02-07T03:13:30.851Z,1005.2
2019-02-07T03:13:56.956Z,1005.22
2019-02-07T03:14:23.386Z,1005.26
2019-02-07T03:14:49.525Z,1005.29
2019-02-07T03:15:15.633Z,1005.23
2019-02-07T03:15:49.418Z,1005.18
2019-02-07T03:16:10.182Z,1005.2
2019-02-07T03:16:36.513Z,1005.22
2019-02-07T03:17:02.625Z,1005.2
2019-02-07T03:17:28.761Z,1005.21
2019-02-07T03:17:55.130Z,1005.2
2019-02-07T03:18:21.242Z,1005.18
2019-02-07T03:18:47.373Z,1005.2
2019-02-07T03:19:13.776Z,1005.18
2019-02-07T03:19:39.882Z,1005.15
2019-02-07T03:20:06.251Z,1005.21
2019-02-07T03:20:32.368Z,1005.15
2019-02-07T03:20:58.531Z,1005.14
2019-02-07T03:21:25.169Z,1005.12
2019-02-07T03:21:51.277Z,1005.1
2019-02-07T03:22:17.634Z,1005.12
2019-02-07T03:22:43.872Z,1005.11
2019-02-07T03:23:09.976Z,1005.13
2019-02-07T03:23:36.390Z,1005.07
2019-02-07T03:24:02.524Z,1005.08
2019-02-07T03:24:28.665Z,1005.06
2019-02-07T03:24:55.079Z,1005.11
2019-02-07T03:25:21.213Z,1005.04
2019-02-07T03:25:47.542Z,1005.02
2019-02-07T03:26:13.640Z,1005.05
2019-02-07T03:26:39.746Z,1005.03
2019-02-07T03:27:06.099Z,1005.02
2019-02-07T03:27:32.204Z,1005.01
2019-02-07T03:27:58.307Z,1004.98
2019-02-07T03:28:24.644Z,1004.97
2019-02-07T03:28:50.791Z,1004.91
2019-02-07T03:29:17.286Z,1004.94
2019-02-07T03:29:43.433Z,1004.89
2019-02-07T03:30:09.559Z,1004.96
2019-02-07T03:30:36.077Z,1004.9
2019-02-07T03:31:02.203Z,1004.85
2019-02-07T03:31:28.661Z,1004.84
2019-02-07T03:31:55.033Z,1004.83
2019-02-07T03:32:21.136Z,1004.83
2019-02-07T03:32:47.559Z,1004.79
2019-02-07T03:33:13.779Z,1004.82
2019-02-07T03:33:39.907Z,1004.78
2019-02-07T03:34:06.256Z,1004.76
2019-02-07T03:34:32.361Z,1004.83
2019-02-07T03:34:58.652Z,1004.77
2019-02-07T03:35:24.819Z,1004.76
2019-02-07T03:35:50.925Z,1004.74
2019-02-07T03:36:17.078Z,1004.73
2019-02-07T03:36:43.244Z,1004.68
2019-02-07T03:37:09.393Z,1004.69
2019-02-07T03:37:35.810Z,1004.66
2019-02-07T03:38:01.940Z,1004.65
2019-02-07T03:38:28.326Z,1004.73
2019-02-07T03:38:54.465Z,1004.69
2019-02-07T03:39:20.603Z,1004.66
2019-02-07T03:39:47.132Z,1004.61
2019-02-07T03:40:13.240Z,1004.62
2019-02-07T03:40:39.341Z,1004.61
2019-02-07T03:41:05.663Z,1004.62
2019-02-07T03:41:31.854Z,1004.64
2019-02-07T03:41:58.143Z,1004.62
2019-02-07T03:42:24.277Z,1004.53
2019-02-07T03:42:50.469Z,1004.5
2019-02-07T03:43:16.590Z,1004.57
2019-02-07T03:43:42.738Z,1004.49
2019-02-07T03:44:09.138Z,1004.51
2019-02-07T03:44:35.250Z,1004.52
2019-02-07T03:45:01.350Z,1004.51
2019-02-07T03:45:27.823Z,1004.51
2019-02-07T03:46:02.241Z,1004.5
2019-02-07T03:46:22.034Z,1004.54
2019-02-07T03:46:48.477Z,1004.51
2019-02-07T03:47:14.578Z,1004.46
2019-02-07T03:47:40.931Z,1004.48
2019-02-07T03:48:07.069Z,1004.44
2019-02-07T03:48:33.179Z,1004.47
2019-02-07T03:48:59.328Z,1004.44
2019-02-07T03:49:25.465Z,1004.47
2019-02-07T03:49:52.034Z,1004.44
2019-02-07T03:50:18.115Z,1004.4
2019-02-07T03:50:44.246Z,1004.37
2019-02-07T03:51:10.843Z,1004.38
2019-02-07T03:51:36.944Z,1004.38
2019-02-07T03:52:03.052Z,1004.39
2019-02-07T03:52:29.595Z,1004.36
2019-02-07T03:52:55.728Z,1004.36
2019-02-07T03:53:22.313Z,1004.39
2019-02-07T03:53:48.423Z,1004.44
2019-02-07T03:54:14.555Z,1004.39
2019-02-07T03:54:40.951Z,1004.37
2019-02-07T03:55:07.144Z,1004.34
2019-02-07T03:55:33.275Z,1004.35
2019-02-07T03:55:59.624Z,1004.32
2019-02-07T03:56:26.201Z,1004.3
2019-02-07T03:56:52.630Z,1004.29
2019-02-07T03:57:18.732Z,1004.27
2019-02-07T03:57:44.869Z,1004.3
2019-02-07T03:58:11.279Z,1004.38
2019-02-07T03:58:37.409Z,1004.39
2019-02-07T03:59:03.677Z,1004.24
2019-02-07T03:59:29.784Z,1004.25
2019-02-07T03:59:55.914Z,1004.22
2019-02-07T04:00:22.260Z,1004.19
2019-02-07T04:00:48.369Z,1004.23
2019-02-07T04:01:14.481Z,1004.2
2019-02-07T04:01:40.990Z,1004.16
2019-02-07T04:02:07.087Z,1004.11
2019-02-07T04:02:34.217Z,1004.12
2019-02-07T04:03:01.395Z,1004.11
2019-02-07T04:03:27.487Z,1004.09
2019-02-07T04:03:53.965Z,1004.09
2019-02-07T04:04:20.063Z,1004.11
2019-02-07T04:04:46.388Z,1004.05
2019-02-07T04:05:12.511Z,1004.04
2019-02-07T04:05:38.613Z,1004.06
2019-02-07T04:06:04.921Z,1004.14
2019-02-07T04:06:31.063Z,1004.06
2019-02-07T04:06:57.174Z,1004.11
2019-02-07T04:07:23.569Z,1004.05
2019-02-07T04:07:49.753Z,1004.04
2019-02-07T04:08:16.074Z,1004.05
2019-02-07T04:08:42.184Z,1004.05
2019-02-07T04:09:08.284Z,1004.03
2019-02-07T04:09:34.671Z,1004.06
2019-02-07T04:10:00.781Z,1004.01
2019-02-07T04:10:26.888Z,1004.01
2019-02-07T04:10:53.804Z,1003.97
2019-02-07T04:11:19.910Z,1003.97
2019-02-07T04:11:46.353Z,1003.97
2019-02-07T04:12:12.451Z,1003.96
2019-02-07T04:12:38.557Z,1003.92
2019-02-07T04:13:04.905Z,1003.9
2019-02-07T04:13:31.011Z,1003.92
2019-02-07T04:13:57.171Z,1003.89
2019-02-07T04:14:23.475Z,1003.87
2019-02-07T04:14:49.603Z,1003.92
2019-02-07T04:15:16.095Z,1003.92
2019-02-07T04:15:42.192Z,1003.9
2019-02-07T04:16:14.922Z,1003.86
2019-02-07T04:16:37.436Z,1003.87
2019-02-07T04:17:03.622Z,1003.86
2019-02-07T04:17:30.024Z,1003.83
2019-02-07T04:17:56.136Z,1003.86
2019-02-07T04:18:22.261Z,1003.86
2019-02-07T04:18:48.607Z,1003.91
2019-02-07T04:19:14.751Z,1003.86
2019-02-07T04:19:40.917Z,1003.82
2019-02-07T04:20:07.182Z,1003.88
2019-02-07T04:20:33.291Z,1003.74
2019-02-07T04:20:59.721Z,1003.75
2019-02-07T04:21:25.859Z,1003.71
2019-02-07T04:21:51.979Z,1003.77
2019-02-07T04:22:18.518Z,1003.83
2019-02-07T04:22:44.619Z,1003.77
2019-02-07T04:23:11.034Z,1003.78
2019-02-07T04:23:37.139Z,1003.75
2019-02-07T04:24:03.241Z,1003.77
2019-02-07T04:24:29.580Z,1003.75
2019-02-07T04:24:55.683Z,1003.73
2019-02-07T04:25:21.845Z,1003.73
2019-02-07T04:25:48.260Z,1003.74
2019-02-07T04:26:14.401Z,1003.73
2019-02-07T04:26:40.800Z,1003.75
2019-02-07T04:27:06.940Z,1003.73
2019-02-07T04:27:33.067Z,1003.73
2019-02-07T04:27:59.491Z,1003.69
2019-02-07T04:28:25.610Z,1003.72
2019-02-07T04:28:52.094Z,1003.69
2019-02-07T04:29:18.201Z,1003.69
2019-02-07T04:29:44.333Z,1003.71
2019-02-07T04:30:10.943Z,1003.63
2019-02-07T04:30:37.072Z,1003.6
2019-02-07T04:31:03.215Z,1003.65
2019-02-07T04:31:29.721Z,1003.65
2019-02-07T04:31:55.883Z,1003.61
2019-02-07T04:32:22.445Z,1003.61
2019-02-07T04:32:48.582Z,1003.6
2019-02-07T04:33:16.644Z,1003.54
2019-02-07T04:33:42.003Z,1003.6
2019-02-07T04:34:08.145Z,1003.55
2019-02-07T04:34:34.557Z,1003.57
2019-02-07T04:35:00.852Z,1003.57
2019-02-07T04:35:26.957Z,1003.51
2019-02-07T04:35:54.227Z,1003.52
2019-02-07T04:36:20.348Z,1003.59
2019-02-07T04:36:46.460Z,1003.52
2019-02-07T04:37:12.872Z,1003.51
2019-02-07T04:37:38.976Z,1003.48
2019-02-07T04:38:05.102Z,1003.49
2019-02-07T04:38:31.214Z,1003.49
2019-02-07T04:38:57.346Z,1003.47
2019-02-07T04:39:23.498Z,1003.48
2019-02-07T04:39:49.669Z,1003.47
2019-02-07T04:40:16.829Z,1003.53
2019-02-07T04:40:43.134Z,1003.4
2019-02-07T04:41:09.241Z,1003.41
2019-02-07T04:41:35.615Z,1003.5
2019-02-07T04:42:01.709Z,1003.45
2019-02-07T04:42:27.817Z,1003.41
2019-02-07T04:42:54.149Z,1003.37
2019-02-07T04:43:20.288Z,1003.38
2019-02-07T04:43:46.572Z,1003.38
2019-02-07T04:44:12.685Z,1003.35
2019-02-07T04:44:38.787Z,1003.35
2019-02-07T04:45:05.135Z,1003.35
2019-02-07T04:45:31.251Z,1003.41
2019-02-07T04:45:57.358Z,1003.46
2019-02-07T04:46:26.856Z,1003.43
2019-02-07T04:46:50.013Z,1003.39
2019-02-07T04:47:16.600Z,1003.38
2019-02-07T04:47:42.703Z,1003.39
2019-02-07T04:48:08.816Z,1003.37
2019-02-07T04:48:35.201Z,1003.41
2019-02-07T04:49:01.305Z,1003.36
2019-02-07T04:49:27.404Z,1003.38
2019-02-07T04:49:53.750Z,1003.33
2019-02-07T04:50:19.882Z,1003.3
2019-02-07T04:50:46.240Z,1003.28
2019-02-07T04:51:12.341Z,1003.32
2019-02-07T04:51:38.477Z,1003.26
2019-02-07T04:52:04.787Z,1003.27
2019-02-07T04:52:30.887Z,1003.22
2019-02-07T04:52:59.182Z,1003.25
2019-02-07T04:53:24.339Z,1003.28
2019-02-07T04:53:50.443Z,1003.24
2019-02-07T04:54:16.872Z,1003.21
2019-02-07T04:54:42.978Z,1003.22
2019-02-07T04:55:09.077Z,1003.21
2019-02-07T04:55:35.606Z,1003.16
2019-02-07T04:56:01.711Z,1003.24
2019-02-07T04:56:28.141Z,1003.25
2019-02-07T04:56:54.248Z,1003.21
2019-02-07T04:57:20.377Z,1003.21
2019-02-07T04:57:46.943Z,1003.14
2019-02-07T04:58:13.051Z,1003.14
2019-02-07T04:58:39.192Z,1003.23
2019-02-07T04:59:05.601Z,1003.15
2019-02-07T04:59:31.674Z,1003.12
2019-02-07T04:59:58.114Z,1003.11
2019-02-07T05:00:25.218Z,1003.14
2019-02-07T05:00:51.353Z,1003.13
2019-02-07T05:01:17.693Z,1003.15
2019-02-07T05:01:43.811Z,1003.07
2019-02-07T05:02:10.168Z,1003.07
2019-02-07T05:02:36.307Z,1003.08
2019-02-07T05:03:02.413Z,1003.03
2019-02-07T05:03:28.838Z,1003.11
2019-02-07T05:03:55.046Z,1003.11
2019-02-07T05:04:21.077Z,1003.05
2019-02-07T05:04:47.239Z,1003.03
2019-02-07T05:05:13.452Z,1003.04
2019-02-07T05:05:39.787Z,1003.05
2019-02-07T05:06:05.923Z,1003.06
2019-02-07T05:06:32.024Z,1003
2019-02-07T05:06:58.592Z,1003.03
2019-02-07T05:07:24.724Z,1003
2019-02-07T05:07:51.201Z,1002.99
2019-02-07T05:08:17.361Z,1002.91
2019-02-07T05:08:43.455Z,1002.99
2019-02-07T05:09:09.815Z,1002.93
2019-02-07T05:09:35.976Z,1002.96
2019-02-07T05:10:02.088Z,1003.03
2019-02-07T05:10:28.344Z,1002.9
2019-02-07T05:10:54.485Z,1002.92
2019-02-07T05:11:20.844Z,1002.97
2019-02-07T05:11:46.951Z,1002.97
2019-02-07T05:12:13.055Z,1002.95
2019-02-07T05:12:39.465Z,1002.93
2019-02-07T05:13:05.561Z,1003.02
2019-02-07T05:13:31.668Z,1002.91
2019-02-07T05:13:58.283Z,1002.92
2019-02-07T05:14:24.392Z,1002.92
2019-02-07T05:14:50.979Z,1002.93
2019-02-07T05:15:17.101Z,1002.91
2019-02-07T05:15:43.257Z,1002.91
2019-02-07T05:16:09.846Z,1002.89
2019-02-07T05:16:39.372Z,1002.89
2019-02-07T05:17:04.918Z,1002.86
2019-02-07T05:17:31.055Z,1002.86
2019-02-07T05:17:57.164Z,1002.86
2019-02-07T05:18:23.510Z,1002.85